Time;durP1;ratioP1;P1;durP2;ratioP2;P2;SDS_P1;SDS_P2;PMS_P1;PMS_P2;Temp;Humidity;BMP_temperature;BMP_pressure;BME280_temperature;BME280_humidity;BME280_pressure;Samples;Min_cycle;Max_cycle;Signal;HPM_P1;HPM_P2
2021/12/15 00:01:48;;;;;;;22.10;9.63;;;8.60;85.90;;;;;;5086593;28;20024;-80
2021/12/15 00:04:15;;;;;;;22.90;10.25;;;8.60;86.00;;;;;;5078914;28;20024;-80
2021/12/15 00:06:41;;;;;;;22.92;8.88;;;8.60;85.90;;;;;;5096790;28;20478;-79
2021/12/15 00:09:11;;;;;;;25.10;10.63;;;8.60;85.00;;;;;;5084571;28;20021;-80
2021/12/15 00:11:38;;;;;;;22.65;9.13;;;8.70;85.60;;;;;;5076463;28;20383;-80
2021/12/15 00:14:14;;;;;;;22.60;8.13;;;8.70;85.40;;;;;;5076951;28;20016;-80
2021/12/15 00:16:41;;;;;;;24.50;8.90;;;8.70;85.30;;;;;;5064606;28;20024;-80
2021/12/15 00:19:07;;;;;;;22.85;9.23;;;8.80;84.70;;;;;;5076777;28;20030;-80
2021/12/15 00:21:33;;;;;;;22.13;9.60;;;8.80;84.90;;;;;;5076419;28;20048;-80
2021/12/15 00:23:59;;;;;;;24.40;9.57;;;8.80;84.70;;;;;;5062847;28;20052;-80
2021/12/15 00:26:25;;;;;;;24.30;9.65;;;8.90;84.70;;;;;;5058674;28;20091;-80
2021/12/15 00:28:52;;;;;;;24.98;9.70;;;9.00;84.50;;;;;;5076553;28;20028;-80
2021/12/15 00:31:18;;;;;;;20.08;9.27;;;9.00;84.10;;;;;;5083077;28;20019;-80
2021/12/15 00:33:45;;;;;;;21.17;8.68;;;8.90;84.00;;;;;;5077443;28;20119;-80
2021/12/15 00:36:12;;;;;;;24.65;8.80;;;8.90;84.30;;;;;;5096006;28;20025;-80
2021/12/15 00:38:39;;;;;;;21.50;9.35;;;9.00;84.20;;;;;;5096744;28;20031;-80
2021/12/15 00:41:05;;;;;;;23.05;9.57;;;9.00;84.00;;;;;;5077047;28;20032;-80
2021/12/15 00:43:32;;;;;;;18.13;8.65;;;9.10;84.00;;;;;;5076293;28;20561;-80
2021/12/15 00:45:58;;;;;;;20.02;8.43;;;9.10;83.90;;;;;;5076009;28;20039;-80
2021/12/15 00:48:24;;;;;;;24.48;9.65;;;9.10;83.80;;;;;;5076123;28;20406;-79
2021/12/15 00:50:50;;;;;;;18.38;9.02;;;9.10;83.80;;;;;;5075859;28;20021;-79
2021/12/15 00:53:16;;;;;;;19.75;7.75;;;9.10;83.50;;;;;;5076149;28;20391;-80
2021/12/15 00:55:43;;;;;;;20.92;9.07;;;9.00;83.90;;;;;;5075279;28;20051;-80
2021/12/15 00:58:10;;;;;;;18.95;8.40;;;9.00;83.90;;;;;;5075862;28;20498;-79
2021/12/15 01:00:42;;;;;;;24.63;9.32;;;9.10;83.80;;;;;;5077506;28;20104;-79
2021/12/15 01:03:09;;;;;;;23.60;8.38;;;9.10;83.80;;;;;;5078303;28;20108;-79
2021/12/15 01:05:40;;;;;;;18.75;7.85;;;9.10;83.60;;;;;;5075824;28;20056;-79
2021/12/15 01:08:12;;;;;;;17.85;7.85;;;9.10;83.60;;;;;;5075796;28;20021;-79
2021/12/15 01:10:56;;;;;;;17.58;7.95;;;9.10;83.70;;;;;;5075487;28;20123;-79
2021/12/15 01:21:42;;;;;;;23.77;8.80;;;9.00;83.50;;;;;;5075469;28;20083;-80
2021/12/15 01:24:08;;;;;;;17.50;7.63;;;8.90;83.90;;;;;;5075307;28;20070;-79
2021/12/15 01:26:34;;;;;;;21.58;8.45;;;9.00;83.90;;;;;;5075391;28;20032;-79
2021/12/15 01:29:00;;;;;;;17.98;7.68;;;9.00;83.90;;;;;;5075083;28;20124;-79
2021/12/15 01:31:26;;;;;;;17.65;8.23;;;9.10;83.80;;;;;;5075101;28;20505;-79
2021/12/15 01:33:52;;;;;;;15.80;8.38;;;9.00;83.50;;;;;;5095433;28;20028;-80
2021/12/15 01:36:18;;;;;;;15.55;7.75;;;9.00;83.80;;;;;;5095270;28;20031;-79
2021/12/15 01:38:46;;;;;;;14.65;7.57;;;9.00;83.40;;;;;;5091699;28;20083;-79
2021/12/15 01:41:19;;;;;;;12.95;6.45;;;9.00;83.60;;;;;;5075250;28;20438;-79
2021/12/15 01:46:53;;;;;;;14.30;6.65;;;8.90;83.50;;;;;;5075475;28;20107;-79
2021/12/15 01:47:00;;;;;;;19.83;7.72;;;8.90;83.40;;;;;;5075019;28;20020;-79
2021/12/15 01:49:34;;;;;;;18.30;8.13;;;8.80;83.40;;;;;;5075250;28;20465;-79
2021/12/15 01:52:17;;;;;;;14.65;7.18;;;8.70;83.70;;;;;;5075116;28;20056;-79
2021/12/15 01:54:48;;;;;;;12.98;6.10;;;8.70;83.60;;;;;;5075236;28;20431;-79
2021/12/15 01:57:15;;;;;;;14.55;6.45;;;8.70;83.60;;;;;;5074889;28;20036;-79
2021/12/15 01:59:43;;;;;;;13.57;6.53;;;8.80;83.90;;;;;;5075080;28;20046;-79
2021/12/15 02:02:09;;;;;;;12.52;6.40;;;8.80;83.40;;;;;;5075023;28;20037;-79
2021/12/15 02:04:35;;;;;;;10.15;5.20;;;8.70;83.20;;;;;;5075181;28;20021;-79
2021/12/15 02:07:04;;;;;;;14.68;6.80;;;8.60;83.10;;;;;;5074941;28;20036;-79
2021/12/15 02:12:17;;;;;;;13.35;6.03;;;8.60;83.50;;;;;;5074340;28;20061;-79
2021/12/15 02:14:42;;;;;;;13.18;7.32;;;8.60;83.70;;;;;;5061285;28;20025;-79
2021/12/15 02:17:08;;;;;;;15.73;6.53;;;8.50;83.50;;;;;;5074900;28;20109;-78
2021/12/15 02:19:34;;;;;;;20.95;7.05;;;8.50;84.00;;;;;;5075733;28;20056;-79
2021/12/15 02:22:00;;;;;;;14.45;6.85;;;8.50;83.70;;;;;;5092138;28;20052;-79
2021/12/15 02:24:27;;;;;;;17.83;7.15;;;8.50;83.80;;;;;;5078246;28;20028;-79
2021/12/15 02:26:58;;;;;;;13.48;6.18;;;8.60;83.90;;;;;;5094652;28;20028;-79
2021/12/15 02:29:24;;;;;;;13.25;7.30;;;8.60;83.50;;;;;;5094618;28;20562;-79
2021/12/15 02:39:33;;;;;;;15.32;7.75;;;8.50;84.00;;;;;;5099319;28;20639;-79
2021/12/15 02:41:59;;;;;;;16.58;7.70;;;8.60;84.00;;;;;;5097534;28;20075;-79
2021/12/15 02:44:27;;;;;;;13.63;7.70;;;8.60;83.60;;;;;;5099031;28;20473;-79
2021/12/15 02:46:54;;;;;;;14.00;6.57;;;8.70;83.70;;;;;;5080518;28;20024;-79
2021/12/15 02:49:23;;;;;;;16.17;7.90;;;8.70;83.60;;;;;;5091165;28;20035;-79
2021/12/15 02:51:52;;;;;;;15.07;7.32;;;8.70;83.50;;;;;;5078465;28;20027;-79
2021/12/15 02:54:19;;;;;;;15.90;8.50;;;8.70;83.60;;;;;;5078476;28;20024;-79
2021/12/15 02:56:46;;;;;;;19.13;8.75;;;8.70;83.20;;;;;;5077874;28;20021;-79
2021/12/15 02:59:14;;;;;;;16.30;8.57;;;8.60;83.10;;;;;;5078365;28;20060;-79
2021/12/15 03:02:03;;;;;;;16.25;8.60;;;8.70;83.40;;;;;;5078667;28;20120;-79
2021/12/15 03:07:16;;;;;;;17.65;9.57;;;8.80;83.30;;;;;;5078126;28;20028;-79
2021/12/15 03:17:41;;;;;;;19.42;8.43;;;8.70;83.10;;;;;;5077953;28;20071;-79
2021/12/15 03:20:09;;;;;;;13.35;6.60;;;8.80;83.30;;;;;;5077945;28;20025;-79
2021/12/15 03:22:35;;;;;;;21.80;8.68;;;8.70;82.80;;;;;;5077605;28;20052;-79
2021/12/15 03:25:01;;;;;;;16.98;8.90;;;8.60;83.50;;;;;;5077678;28;20047;-79
2021/12/15 03:33:17;;;;;;;17.65;8.50;;;8.70;83.40;;;;;;5077578;28;20021;-79
2021/12/15 03:36:01;;;;;;;15.50;8.05;;;8.70;83.30;;;;;;5093715;28;20027;-78
2021/12/15 03:38:28;;;;;;;21.38;9.60;;;8.60;83.30;;;;;;5097853;28;20387;-78
2021/12/15 03:40:55;;;;;;;20.05;9.07;;;8.50;83.50;;;;;;5077924;28;20058;-79
2021/12/15 03:43:21;;;;;;;19.80;9.60;;;8.60;83.40;;;;;;5097860;28;20133;-79
2021/12/15 03:45:55;;;;;;;22.85;10.20;;;8.60;83.60;;;;;;5095103;28;20054;-79
2021/12/15 03:48:24;;;;;;;19.17;9.32;;;8.60;83.50;;;;;;5077386;28;20135;-79
2021/12/15 03:50:50;;;;;;;21.67;9.98;;;8.60;83.70;;;;;;5077477;28;20033;-79
2021/12/15 03:53:18;;;;;;;21.85;9.32;;;8.50;83.40;;;;;;5077359;28;20511;-79
2021/12/15 03:55:44;;;;;;;22.20;9.23;;;8.60;83.80;;;;;;5077254;28;20021;-79
2021/12/15 03:58:30;;;;;;;23.65;9.60;;;8.70;83.50;;;;;;5077357;28;20020;-79
2021/12/15 04:01:05;;;;;;;27.30;11.18;;;8.70;83.20;;;;;;5076854;28;20021;-78
2021/12/15 04:03:36;;;;;;;23.15;9.40;;;8.70;83.10;;;;;;5059451;28;20119;-79
2021/12/15 04:06:04;;;;;;;23.90;11.02;;;8.70;83.20;;;;;;5081760;28;20020;-79
2021/12/15 04:08:31;;;;;;;23.17;10.60;;;8.70;83.00;;;;;;5095551;28;20024;-79
2021/12/15 04:10:58;;;;;;;26.45;11.70;;;8.70;83.10;;;;;;5092861;28;20122;-79
2021/12/15 04:13:25;;;;;;;21.67;9.25;;;8.70;83.00;;;;;;5076809;28;20016;-78
2021/12/15 04:15:57;;;;;;;28.27;11.93;;;8.80;83.00;;;;;;5077136;28;20029;-79
2021/12/15 04:18:24;;;;;;;28.25;11.35;;;8.80;82.70;;;;;;5076532;28;20029;-78
2021/12/15 04:21:10;;;;;;;26.08;10.82;;;8.80;82.80;;;;;;5076835;28;20071;-78
2021/12/15 04:23:35;;;;;;;24.92;11.38;;;8.80;82.70;;;;;;5076772;28;20095;-79
2021/12/15 04:26:02;;;;;;;23.95;10.82;;;8.80;82.80;;;;;;5076456;28;20475;-78
2021/12/15 04:28:34;;;;;;;23.63;11.70;;;8.80;82.70;;;;;;5076656;28;20441;-78
2021/12/15 04:31:04;;;;;;;27.75;13.00;;;8.80;82.60;;;;;;5076663;28;20050;-79
2021/12/15 04:33:38;;;;;;;20.25;10.15;;;8.80;82.70;;;;;;5076958;28;20566;-78
2021/12/15 04:36:06;;;;;;;23.92;10.80;;;8.70;82.40;;;;;;5085203;28;20040;-79
2021/12/15 04:38:33;;;;;;;23.83;11.55;;;8.60;82.90;;;;;;5076189;28;20700;-78
2021/12/15 04:41:05;;;;;;;25.77;12.27;;;8.70;83.10;;;;;;5076245;28;20032;-79
2021/12/15 04:43:34;;;;;;;26.42;12.52;;;8.80;82.90;;;;;;5076494;28;20029;-79
2021/12/15 04:46:02;;;;;;;27.45;11.13;;;8.70;82.60;;;;;;5076394;28;20406;-79
2021/12/15 04:48:28;;;;;;;27.73;12.57;;;8.70;82.80;;;;;;5076338;28;20123;-79
2021/12/15 04:50:54;;;;;;;27.27;10.75;;;8.70;82.80;;;;;;5076290;28;20052;-79
2021/12/15 04:53:20;;;;;;;21.85;11.55;;;8.60;82.00;;;;;;5076231;28;20768;-79
2021/12/15 04:55:45;;;;;;;22.05;11.23;;;8.50;83.10;;;;;;5075614;28;20108;-79
2021/12/15 04:58:12;;;;;;;25.27;11.65;;;8.50;83.20;;;;;;5074983;28;20565;-79
2021/12/15 05:01:01;;;;;;;24.13;11.00;;;8.30;82.90;;;;;;5077145;28;20055;-79
2021/12/15 05:03:27;;;;;;;22.83;11.18;;;8.40;83.40;;;;;;5077946;28;20028;-81
2021/12/15 05:05:52;;;;;;;22.40;10.10;;;8.50;83.40;;;;;;5080357;28;20719;-79
2021/12/15 05:08:19;;;;;;;26.08;11.75;;;8.50;83.30;;;;;;5075771;28;20035;-80
2021/12/15 05:10:45;;;;;;;26.75;12.32;;;8.50;83.00;;;;;;5075753;28;20017;-80
2021/12/15 05:13:12;;;;;;;25.00;11.85;;;8.50;82.60;;;;;;5083837;28;20402;-79
2021/12/15 05:15:38;;;;;;;20.00;10.45;;;8.30;83.80;;;;;;5095811;28;20019;-80
2021/12/15 05:18:07;;;;;;;25.35;10.80;;;8.30;82.90;;;;;;5076439;28;20032;-79
2021/12/15 05:20:35;;;;;;;22.75;10.57;;;8.40;83.00;;;;;;5075720;28;20025;-80
2021/12/15 05:23:04;;;;;;;23.23;10.02;;;8.30;83.60;;;;;;5075589;28;20124;-77
2021/12/15 05:25:30;;;;;;;21.15;10.15;;;8.30;83.60;;;;;;5057492;28;20486;-78
2021/12/15 05:27:57;;;;;;;19.20;9.68;;;8.30;83.20;;;;;;5075385;28;20051;-78
2021/12/15 05:30:23;;;;;;;20.65;9.13;;;8.50;82.90;;;;;;5093918;28;20032;-78
2021/12/15 05:32:49;;;;;;;23.20;10.75;;;8.40;82.70;;;;;;5095728;28;20028;-80
2021/12/15 05:35:25;;;;;;;26.25;10.88;;;8.30;83.50;;;;;;5093098;28;20020;-78
2021/12/15 05:37:55;;;;;;;22.05;11.05;;;8.40;83.50;;;;;;5095679;28;20032;-78
2021/12/15 05:40:21;;;;;;;22.90;10.27;;;8.40;83.00;;;;;;5095290;28;20028;-78
2021/12/15 05:42:48;;;;;;;25.95;11.98;;;8.50;82.90;;;;;;5090417;28;20713;-80
2021/12/15 05:45:14;;;;;;;21.25;10.15;;;8.60;82.90;;;;;;5075175;28;20052;-77
2021/12/15 05:47:41;;;;;;;20.13;9.63;;;8.50;82.80;;;;;;5075071;28;20028;-78
2021/12/15 05:50:10;;;;;;;23.73;10.80;;;8.60;82.40;;;;;;5075208;28;20016;-76
2021/12/15 05:52:36;;;;;;;21.92;11.13;;;8.50;82.40;;;;;;5074771;28;20697;-80
2021/12/15 05:55:02;;;;;;;23.05;10.77;;;8.50;83.00;;;;;;5075134;28;20280;-78
2021/12/15 05:57:28;;;;;;;24.35;11.70;;;8.50;82.50;;;;;;5075176;28;20149;-78
2021/12/15 05:59:53;;;;;;;26.15;11.85;;;8.50;82.50;;;;;;5075614;28;20111;-77
2021/12/15 06:02:19;;;;;;;21.23;10.63;;;8.50;82.70;;;;;;5074944;28;20035;-77
2021/12/15 06:04:45;;;;;;;23.02;10.73;;;8.40;83.10;;;;;;5056858;28;20028;-77
2021/12/15 06:07:11;;;;;;;25.38;12.02;;;8.40;82.90;;;;;;5056401;28;20047;-76
2021/12/15 06:09:39;;;;;;;24.20;11.30;;;8.30;82.70;;;;;;5056724;28;20101;-77
2021/12/15 06:12:05;;;;;;;24.05;10.27;;;8.30;83.10;;;;;;5074799;28;20024;-79
2021/12/15 06:14:31;;;;;;;22.50;11.32;;;8.40;83.10;;;;;;5075094;28;20122;-86
2021/12/15 06:17:10;;;;;;;23.00;11.48;;;8.40;82.50;;;;;;5074549;28;20028;-87
2021/12/15 06:19:38;;;;;;;26.13;12.73;;;8.40;82.70;;;;;;5079658;28;20052;-84
2021/12/15 06:22:05;;;;;;;22.80;11.23;;;8.40;82.70;;;;;;5075390;28;20044;-83
2021/12/15 06:24:31;;;;;;;26.67;13.27;;;8.40;83.00;;;;;;5085408;28;20024;-85
2021/12/15 06:27:05;;;;;;;23.42;10.60;;;8.40;82.80;;;;;;5097038;28;20027;-83
2021/12/15 06:29:33;;;;;;;23.88;11.18;;;8.50;82.90;;;;;;5067953;28;20027;-83
2021/12/15 06:32:23;;;;;;;24.10;11.55;;;8.50;82.30;;;;;;5074772;28;20032;-83
2021/12/15 06:34:49;;;;;;;24.88;11.60;;;8.50;82.50;;;;;;5066286;28;20074;-87
2021/12/15 06:37:15;;;;;;;25.58;11.40;;;8.60;82.60;;;;;;5094342;28;20081;-84
2021/12/15 06:39:40;;;;;;;24.67;12.10;;;8.60;82.30;;;;;;5084902;28;20100;-85
2021/12/15 06:42:06;;;;;;;26.40;12.93;;;8.60;82.40;;;;;;5094387;28;20024;-85
2021/12/15 06:44:33;;;;;;;26.98;13.00;;;8.70;82.30;;;;;;5089987;28;20042;-85
2021/12/15 07:00:38;;;;;;;34.85;18.02;;;8.60;82.60;;;;;;5093690;28;20089;-82
2021/12/15 07:03:04;;;;;;;27.35;15.60;;;8.50;82.60;;;;;;5094863;28;20032;-82
2021/12/15 07:05:32;;;;;;;24.35;13.02;;;8.40;82.90;;;;;;5091899;28;20409;-83
2021/12/15 07:08:00;;;;;;;21.08;10.52;;;8.50;82.90;;;;;;5093072;28;20074;-83
2021/12/15 07:10:30;;;;;;;26.38;10.77;;;8.40;83.00;;;;;;5075207;28;20063;-82
2021/12/15 07:12:56;;;;;;;38.63;18.52;;;8.50;82.80;;;;;;5093024;28;20135;-82
2021/12/15 07:15:22;;;;;;;31.58;13.07;;;8.50;82.80;;;;;;5094704;28;20035;-82
2021/12/15 07:17:51;;;;;;;55.03;30.38;;;8.50;82.70;;;;;;5086657;28;20016;-82
2021/12/15 07:23:32;;;;;;;29.42;13.10;;;8.40;82.70;;;;;;5078109;28;20039;-82
2021/12/15 07:25:58;;;;;;;22.25;9.98;;;8.50;82.70;;;;;;5078256;28;20033;-82
2021/12/15 07:28:24;;;;;;;25.95;11.23;;;8.60;82.50;;;;;;5077902;28;20036;-82
2021/12/15 07:30:51;;;;;;;26.17;10.93;;;8.60;82.40;;;;;;5078181;28;20103;-83
2021/12/15 07:33:17;;;;;;;23.27;10.38;;;8.50;82.40;;;;;;5078114;28;20017;-83
2021/12/15 07:35:43;;;;;;;22.42;10.93;;;8.50;82.80;;;;;;5093953;28;20024;-82
2021/12/15 07:38:08;;;;;;;33.90;15.57;;;8.50;82.80;;;;;;5098258;28;20028;-82
2021/12/15 07:40:42;;;;;;;28.48;14.32;;;8.50;82.50;;;;;;5098239;28;20103;-82
2021/12/15 07:43:13;;;;;;;22.40;10.48;;;8.50;82.70;;;;;;5079383;28;20082;-82
2021/12/15 07:45:45;;;;;;;26.17;12.63;;;8.50;82.20;;;;;;5089047;28;20028;-83
2021/12/15 07:48:14;;;;;;;24.55;13.05;;;8.30;82.20;;;;;;5059788;28;20398;-82
2021/12/15 07:50:42;;;;;;;19.35;9.50;;;8.30;83.00;;;;;;5077843;28;20502;-82
2021/12/15 07:53:07;;;;;;;21.42;10.10;;;8.30;82.70;;;;;;5077847;28;20020;-82
2021/12/15 07:55:35;;;;;;;23.40;11.45;;;8.30;82.90;;;;;;5077987;28;20036;-82
2021/12/15 07:58:02;;;;;;;22.88;10.50;;;8.30;83.20;;;;;;5097020;28;20031;-82
2021/12/15 08:00:28;;;;;;;40.95;17.55;;;8.20;82.90;;;;;;5097781;28;20127;-83
2021/12/15 08:03:16;;;;;;;36.08;17.98;;;8.30;83.10;;;;;;5062666;28;20036;-81
2021/12/15 08:05:43;;;;;;;28.13;12.98;;;8.40;83.00;;;;;;5077366;28;20383;-82
2021/12/15 08:08:09;;;;;;;22.25;13.38;;;8.50;82.80;;;;;;5077375;28;20023;-82
2021/12/15 08:10:35;;;;;;;28.50;13.73;;;8.40;82.40;;;;;;5077592;28;20471;-82
2021/12/15 08:13:01;;;;;;;25.73;11.90;;;8.20;83.10;;;;;;5077313;28;20475;-82
2021/12/15 08:15:27;;;;;;;23.73;10.57;;;8.30;83.00;;;;;;5077483;28;20035;-82
2021/12/15 08:17:53;;;;;;;15.82;7.53;;;8.30;83.00;;;;;;5077212;28;20036;-83
2021/12/15 08:20:25;;;;;;;21.83;9.20;;;8.30;82.60;;;;;;5077188;28;20343;-83
2021/12/15 08:22:51;;;;;;;20.52;10.23;;;8.20;82.60;;;;;;5076760;28;20067;-82
2021/12/15 08:25:18;;;;;;;20.08;9.45;;;8.10;82.80;;;;;;5077116;28;20032;-82
2021/12/15 08:27:45;;;;;;;24.48;10.35;;;8.10;83.10;;;;;;5077094;28;20036;-82
2021/12/15 08:30:19;;;;;;;29.15;11.18;;;8.10;83.30;;;;;;5076972;28;20028;-82
2021/12/15 08:32:46;;;;;;;24.02;10.20;;;8.10;83.10;;;;;;5076956;28;20024;-82
2021/12/15 08:35:12;;;;;;;22.88;10.60;;;8.10;83.30;;;;;;5088476;28;20451;-83
2021/12/15 08:37:38;;;;;;;16.05;9.48;;;8.10;83.40;;;;;;5097021;28;20052;-83
2021/12/15 08:40:04;;;;;;;24.00;10.88;;;8.20;83.20;;;;;;5096956;28;20409;-82
2021/12/15 08:42:30;;;;;;;18.17;9.18;;;8.20;82.90;;;;;;5093720;28;20040;-82
2021/12/15 08:44:56;;;;;;;20.52;9.38;;;8.20;83.00;;;;;;5096080;28;20032;-83
2021/12/15 08:47:22;;;;;;;21.00;11.02;;;8.20;83.30;;;;;;5078825;28;20104;-83
2021/12/15 08:49:48;;;;;;;22.55;12.27;;;8.20;83.10;;;;;;5096863;28;20028;-83
2021/12/15 08:52:14;;;;;;;23.60;11.07;;;8.30;83.40;;;;;;5077574;28;20090;-82
2021/12/15 08:54:40;;;;;;;18.33;9.70;;;8.30;83.10;;;;;;5076493;28;20477;-82
2021/12/15 08:57:07;;;;;;;20.58;9.95;;;8.40;82.70;;;;;;5076294;28;20127;-82
2021/12/15 08:59:34;;;;;;;15.90;7.95;;;8.40;82.90;;;;;;5076080;28;20029;-82
2021/12/15 09:02:00;;;;;;;24.65;10.50;;;8.40;82.20;;;;;;5076453;28;20024;-83
2021/12/15 09:04:26;;;;;;;17.60;9.40;;;8.30;82.50;;;;;;5087506;28;20737;-82
2021/12/15 09:06:52;;;;;;;15.27;8.05;;;8.20;82.60;;;;;;5094434;28;20099;-83
2021/12/15 09:09:20;;;;;;;23.42;9.95;;;8.10;82.90;;;;;;5075993;28;20039;-82
2021/12/15 09:11:48;;;;;;;24.35;9.13;;;8.10;83.60;;;;;;5076077;28;20445;-82
2021/12/15 09:14:14;;;;;;;19.33;9.60;;;8.00;83.20;;;;;;5076222;28;20032;-82
2021/12/15 09:16:43;;;;;;;20.25;9.20;;;8.00;83.10;;;;;;5075910;28;20062;-82
2021/12/15 09:19:09;;;;;;;19.00;8.80;;;8.10;83.60;;;;;;5076143;28;20052;-83
2021/12/15 09:21:36;;;;;;;18.70;7.80;;;8.10;83.50;;;;;;5075631;28;20044;-83
2021/12/15 09:24:04;;;;;;;18.30;8.88;;;8.20;83.20;;;;;;5074702;28;20021;-82
2021/12/15 09:26:31;;;;;;;18.50;7.93;;;8.20;82.70;;;;;;5075794;28;20033;-82
2021/12/15 09:28:57;;;;;;;25.27;10.38;;;8.20;83.20;;;;;;5075758;28;20104;-83
2021/12/15 09:31:25;;;;;;;22.23;10.82;;;8.10;83.30;;;;;;5075334;28;20024;-83
2021/12/15 09:33:52;;;;;;;28.80;14.32;;;8.20;82.90;;;;;;5074905;28;20699;-83
2021/12/15 09:36:20;;;;;;;18.52;9.38;;;8.20;82.70;;;;;;5087817;28;20020;-83
2021/12/15 09:38:50;;;;;;;13.85;7.00;;;8.10;83.00;;;;;;5074619;28;20024;-83
2021/12/15 09:41:17;;;;;;;;;;;8.10;82.80;;;;;;5075103;28;20028;-83
2021/12/15 09:43:44;;;;;;;14.45;7.45;;;8.20;82.60;;;;;;5083122;28;19904;-82
2021/12/15 09:46:32;;;;;;;19.52;8.25;;;8.10;82.60;;;;;;5083156;28;20063;-83
2021/12/15 09:57:27;;;;;;;20.40;9.68;;;8.30;82.80;;;;;;5074469;28;20618;-82
2021/12/15 10:02:57;;;;;;;18.70;10.23;;;8.40;82.50;;;;;;5067864;28;19911;-83
2021/12/15 10:05:38;;;;;;;18.38;8.13;;;8.40;82.20;;;;;;5074097;28;20052;-83
2021/12/15 10:19:46;;;;;;;15.82;8.18;;;8.20;82.20;;;;;;5061803;28;20028;-83
2021/12/15 10:22:40;;;;;;;21.58;8.73;;;8.20;82.20;;;;;;5055867;28;20056;-83
2021/12/15 10:25:17;;;;;;;21.08;10.40;;;8.20;82.50;;;;;;5074322;28;20111;-83
2021/12/15 10:27:48;;;;;;;17.38;7.75;;;8.30;82.60;;;;;;5074178;28;20032;-83
2021/12/15 10:30:24;;;;;;;17.40;8.15;;;8.30;82.10;;;;;;5073974;28;20021;-83
2021/12/15 10:33:01;;;;;;;18.40;8.18;;;8.40;82.30;;;;;;5074062;28;20036;-83
2021/12/15 10:35:36;;;;;;;20.63;8.80;;;8.60;82.00;;;;;;5087609;28;20047;-83
2021/12/15 10:38:26;;;;;;;21.48;9.45;;;8.70;81.10;;;;;;5078677;28;20671;-83
2021/12/15 10:40:58;;;;;;;18.33;9.15;;;8.60;81.40;;;;;;5055515;28;20028;-83
2021/12/15 10:43:31;;;;;;;21.17;8.77;;;8.40;81.50;;;;;;5080408;28;20040;-83
2021/12/15 10:46:02;;;;;;;18.02;9.30;;;8.50;82.10;;;;;;5092694;28;20055;-82
2021/12/15 10:48:36;;;;;;;18.35;9.40;;;8.60;81.90;;;;;;5093958;28;20032;-83
2021/12/15 10:51:23;;;;;;;12.73;6.28;;;8.70;81.80;;;;;;5094095;28;20480;-82
2021/12/15 10:53:50;;;;;;;21.58;9.60;;;8.60;81.10;;;;;;5073941;28;20028;-82
2021/12/15 10:56:23;;;;;;;18.75;9.13;;;8.70;81.70;;;;;;5077396;28;20013;-82
2021/12/15 10:58:58;;;;;;;19.58;8.68;;;8.60;81.80;;;;;;5077607;28;20462;-83
2021/12/15 11:01:52;;;;;;;15.88;7.78;;;8.70;81.10;;;;;;5077823;28;20028;-83
2021/12/15 11:04:39;;;;;;;16.00;8.05;;;8.70;81.20;;;;;;5075158;28;20051;-83
2021/12/15 11:07:13;;;;;;;16.85;7.50;;;8.70;81.10;;;;;;5077601;28;20029;-83
2021/12/15 11:09:45;;;;;;;15.10;7.65;;;8.60;80.80;;;;;;5077533;28;20052;-83
2021/12/15 11:12:27;;;;;;;17.70;8.23;;;8.50;80.90;;;;;;5077293;28;20690;-83
2021/12/15 11:14:57;;;;;;;16.80;8.88;;;8.50;81.20;;;;;;5077530;28;20056;-83
2021/12/15 11:17:30;;;;;;;15.45;8.13;;;8.50;81.30;;;;;;5077425;28;20035;-83
2021/12/15 11:19:57;;;;;;;18.08;9.07;;;8.50;81.10;;;;;;5077261;28;20091;-83
2021/12/15 11:22:41;;;;;;;14.25;5.97;;;8.50;81.70;;;;;;5077197;28;20052;-84
2021/12/15 11:25:18;;;;;;;15.25;7.43;;;8.50;81.40;;;;;;5084962;28;20028;-83
2021/12/15 11:27:52;;;;;;;19.90;7.97;;;8.30;81.60;;;;;;5079131;28;20159;-83
2021/12/15 11:30:23;;;;;;;17.17;8.48;;;8.30;82.00;;;;;;5097342;28;20043;-83
2021/12/15 11:32:52;;;;;;;17.23;8.32;;;8.40;81.80;;;;;;5097248;28;20024;-83
2021/12/15 11:35:31;;;;;;;18.75;10.05;;;8.50;82.00;;;;;;5096409;28;20024;-83
2021/12/15 11:38:07;;;;;;;15.82;8.98;;;8.60;81.70;;;;;;5097201;28;20039;-83
2021/12/15 11:41:00;;;;;;;17.38;8.27;;;8.50;81.90;;;;;;5097294;28;20095;-83
2021/12/15 11:43:31;;;;;;;16.92;8.35;;;8.60;81.60;;;;;;5085008;28;20032;-83
2021/12/15 11:45:56;;;;;;;;;;;8.60;81.40;;;;;;5094414;28;20405;-83
2021/12/15 11:48:28;;;;;;;18.45;9.98;;;8.70;81.60;;;;;;5058551;28;19908;-83
2021/12/15 11:51:04;;;;;;;18.48;9.23;;;8.70;81.10;;;;;;5076820;28;20895;-83
2021/12/15 11:53:35;;;;;;;15.30;7.65;;;8.70;81.00;;;;;;5083651;28;20024;-82
2021/12/15 11:56:24;;;;;;;17.77;8.05;;;8.70;80.90;;;;;;5079497;28;20093;-82
2021/12/15 11:58:57;;;;;;;19.52;8.60;;;8.70;81.10;;;;;;5077273;28;20032;-82
2021/12/15 12:01:47;;;;;;;18.52;8.40;;;8.70;80.70;;;;;;5095222;28;20024;-82
2021/12/15 12:04:13;;;;;;;;;;;8.70;80.90;;;;;;5093411;28;20068;-83
2021/12/15 12:06:38;;;;;;;17.08;8.98;;;8.70;80.50;;;;;;5088210;28;19915;-82
2021/12/15 12:09:04;;;;;;;17.42;8.45;;;8.80;80.90;;;;;;5085808;28;20103;-82
2021/12/15 12:11:33;;;;;;;15.63;7.53;;;8.80;80.90;;;;;;5076130;28;20024;-83
2021/12/15 12:14:00;;;;;;;17.17;10.00;;;8.80;80.60;;;;;;5076433;28;20028;-82
2021/12/15 12:16:26;;;;;;;16.52;8.57;;;8.80;80.80;;;;;;5076092;28;20016;-83
2021/12/15 12:18:52;;;;;;;22.83;10.75;;;8.90;81.00;;;;;;5076221;28;20491;-82
2021/12/15 12:21:18;;;;;;;22.92;10.77;;;8.90;80.80;;;;;;5075938;28;20025;-82
2021/12/15 12:23:46;;;;;;;16.90;8.50;;;8.80;81.00;;;;;;5076210;28;20104;-82
2021/12/15 12:26:12;;;;;;;17.20;8.40;;;8.90;80.60;;;;;;5076001;28;20025;-82
2021/12/15 12:28:42;;;;;;;19.92;10.40;;;9.00;80.80;;;;;;5074668;28;20063;-82
2021/12/15 12:31:16;;;;;;;17.48;9.55;;;9.00;80.80;;;;;;5075870;28;20021;-83
2021/12/15 12:33:41;;;;;;;19.73;9.38;;;9.00;81.00;;;;;;5076115;28;20375;-82
2021/12/15 12:36:20;;;;;;;32.15;14.20;;;9.10;80.40;;;;;;5095053;28;20097;-82
2021/12/15 12:38:53;;;;;;;30.60;13.98;;;9.20;80.40;;;;;;5083584;28;20040;-82
2021/12/15 12:41:23;;;;;;;18.85;9.77;;;9.20;79.90;;;;;;5075734;28;20516;-82
2021/12/15 12:43:52;;;;;;;19.52;8.68;;;9.20;79.70;;;;;;5085728;28;20028;-82
2021/12/15 12:46:30;;;;;;;16.73;8.30;;;9.20;79.50;;;;;;5078040;28;20036;-83
2021/12/15 13:00:21;;;;;;;22.40;12.88;;;9.10;79.90;;;;;;5075339;28;20648;-83
2021/12/15 13:02:50;;;;;;;22.60;9.90;;;9.10;80.40;;;;;;5075363;28;20553;-83
2021/12/15 13:05:53;;;;;;;21.95;12.63;;;9.10;80.00;;;;;;5082524;28;20052;-79
2021/12/15 13:08:36;;;;;;;19.35;10.63;;;9.10;80.10;;;;;;5095393;28;20496;-85
2021/12/15 13:11:05;;;;;;;20.40;12.10;;;9.10;79.80;;;;;;5088975;28;20087;-83
2021/12/15 13:13:33;;;;;;;21.38;10.40;;;8.90;80.30;;;;;;5075135;28;20039;-82
2021/12/15 13:16:11;;;;;;;20.25;10.90;;;8.90;80.50;;;;;;5056889;28;20483;-82
2021/12/15 13:18:54;;;;;;;21.85;11.27;;;9.10;80.00;;;;;;5074123;28;20043;-82
2021/12/15 13:21:38;;;;;;;17.95;10.65;;;9.20;80.20;;;;;;5056757;28;20075;-82
2021/12/15 13:24:10;;;;;;;14.70;8.25;;;9.20;79.90;;;;;;5075064;28;20029;-83
2021/12/15 13:29:48;;;;;;;;;;;9.30;79.60;;;;;;5075294;28;20081;-83
2021/12/15 13:32:14;;;;;;;12.75;7.25;;;9.30;79.40;;;;;;5074951;28;20389;-83
2021/12/15 13:34:49;;;;;;;16.60;8.57;;;9.20;78.70;;;;;;5063369;28;20024;-83
2021/12/15 13:37:53;;;;;;;14.73;6.53;;;9.20;79.20;;;;;;5095051;28;20024;-83
2021/12/15 13:41:03;;;;;;;16.13;7.95;;;9.10;78.50;;;;;;5093746;28;20020;-82
2021/12/15 13:43:40;;;;;;;19.27;9.23;;;8.90;78.90;;;;;;5094858;28;20099;-83
2021/12/15 13:46:22;;;;;;;14.20;7.35;;;9.00;79.10;;;;;;5095877;28;20051;-83
2021/12/15 13:49:09;;;;;;;15.88;8.65;;;9.10;79.30;;;;;;5073123;28;20040;-82
2021/12/15 13:51:57;;;;;;;13.98;7.10;;;9.10;78.80;;;;;;5075560;28;20031;-83
2021/12/15 13:54:43;;;;;;;16.40;7.65;;;9.00;78.80;;;;;;5021390;28;20036;-83
2021/12/15 13:57:12;;;;;;;19.13;9.35;;;8.90;79.30;;;;;;5036644;28;20085;-83
2021/12/15 13:59:53;;;;;;;14.02;8.15;;;9.00;79.10;;;;;;5073322;28;20483;-84
2021/12/15 14:02:21;;;;;;;14.00;7.75;;;9.00;79.50;;;;;;5083352;28;20032;-90
2021/12/15 14:04:58;;;;;;;15.82;8.63;;;8.80;79.10;;;;;;5087324;28;20054;-83
2021/12/15 14:07:45;;;;;;;14.45;8.85;;;8.70;79.80;;;;;;5079567;28;20425;-83
2021/12/15 14:10:10;;;;;;;17.45;9.20;;;8.80;80.40;;;;;;5095317;28;20458;-84
2021/12/15 14:12:45;;;;;;;19.70;10.68;;;8.90;80.20;;;;;;5078224;28;20051;-84
2021/12/15 14:15:36;;;;;;;18.08;8.38;;;9.00;80.00;;;;;;5086182;28;20016;-83
2021/12/15 14:18:07;;;;;;;17.60;9.75;;;8.90;79.10;;;;;;5078424;28;20035;-81
2021/12/15 14:20:37;;;;;;;15.77;7.43;;;8.90;79.30;;;;;;5111109;28;20097;-81
2021/12/15 14:23:13;;;;;;;18.63;10.15;;;8.80;79.40;;;;;;5082170;28;20502;-81
2021/12/15 14:25:39;;;;;;;14.05;7.32;;;8.80;79.60;;;;;;5074132;28;20521;-81
2021/12/15 14:28:16;;;;;;;17.77;8.85;;;8.90;79.60;;;;;;5073178;28;20039;-81
2021/12/15 14:30:46;;;;;;;14.25;6.38;;;8.80;79.70;;;;;;5073379;28;20107;-81